Time;durP1;ratioP1;P1;durP2;ratioP2;P2;SDS_P1;SDS_P2;PMS_P1;PMS_P2;Temp;Humidity;BMP_temperature;BMP_pressure;BME280_temperature;BME280_humidity;BME280_pressure;Samples;Min_cycle;Max_cycle;Signal;HPM_P1;HPM_P2
2023/03/31 00:00:42;;;;;;;;;;;;;;;16.69;nan;100456.22;5016150;28;19968;-88
2023/03/31 00:03:09;;;;;;;;;;;;;;;16.62;nan;100449.28;5016755;28;20363;-88
2023/03/31 00:05:37;;;;;;;;;;;;;;;16.63;nan;100445.47;5013904;28;20342;-87
2023/03/31 00:08:02;;;;;;;;;;;;;;;16.67;nan;100447.63;5013082;28;19922;-88
2023/03/31 00:10:28;;;;;;;;;;;;;;;16.71;nan;100437.84;5019722;28;19975;-88
2023/03/31 00:12:54;;;;;;;;;;;;;;;16.71;nan;100438.63;5016073;28;19921;-88
2023/03/31 00:15:21;;;;;;;;;;;;;;;16.71;nan;100437.84;5021723;28;19971;-88
2023/03/31 00:17:46;;;;;;;;;;;;;;;16.70;nan;100430.81;5017107;28;19938;-88
2023/03/31 00:20:13;;;;;;;;;;;;;;;16.69;nan;100437.28;5018939;28;19925;-88
2023/03/31 00:22:41;;;;;;;;;;;;;;;16.70;nan;100431.63;5017512;28;19921;-88
2023/03/31 00:25:07;;;;;;;;;;;;;;;16.66;nan;100422.44;5019388;28;19964;-88
2023/03/31 00:27:32;;;;;;;;;;;;;;;16.62;nan;100418.72;5018205;28;19924;-88
2023/03/31 00:29:57;;;;;;;;;;;;;;;16.65;nan;100417.31;5019612;28;19917;-88
2023/03/31 00:32:23;;;;;;;;;;;;;;;16.56;nan;100425.31;5018279;28;19921;-88
2023/03/31 00:34:48;;;;;;;;;;;;;;;16.58;nan;100421.22;5018576;28;19921;-88
2023/03/31 00:37:14;;;;;;;;;;;;;;;16.60;nan;100421.72;5016307;28;19925;-89
2023/03/31 00:39:41;;;;;;;;;;;;;;;16.62;nan;100418.72;5019960;28;19946;-88
2023/03/31 00:42:11;;;;;;;;;;;;;;;16.60;nan;100418.22;5018056;28;19921;-88
2023/03/31 00:44:56;;;;;;;;;;;;;;;16.59;nan;100409.31;5019111;28;19922;-88
2023/03/31 00:47:22;;;;;;;;;;;;;;;16.60;nan;100405.50;5017460;28;20190;-88
2023/03/31 00:49:55;;;;;;;;;;;;;;;16.64;nan;100419.22;5017765;28;19927;-88
2023/03/31 00:52:27;;;;;;;;;;;;;;;16.66;nan;100408.91;5019318;28;19922;-88
2023/03/31 00:54:57;;;;;;;;;;;;;;;16.65;nan;100411.91;4999412;28;19921;-88
2023/03/31 00:57:24;;;;;;;;;;;;;;;16.69;nan;100405.63;5017081;28;19961;-88
2023/03/31 00:59:51;;;;;;;;;;;;;;;16.69;nan;100400.22;5023503;28;19924;-88
2023/03/31 01:02:19;;;;;;;;;;;;;;;16.66;nan;100397.28;5018827;28;19924;-88
2023/03/31 01:04:49;;;;;;;;;;;;;;;16.62;nan;100392.47;5018494;28;20396;-88
2023/03/31 01:07:21;;;;;;;;;;;;;;;16.63;nan;100382.47;5019156;28;19925;-89
2023/03/31 01:09:47;;;;;;;;;;;;;;;16.68;nan;100395.13;5020330;28;19963;-89
2023/03/31 01:12:14;;;;;;;;;;;;;;;16.71;nan;100379.13;5018412;28;20233;-88
2023/03/31 01:14:40;;;;;;;;;;;;;;;16.68;nan;100384.28;5018071;28;19918;-88
2023/03/31 01:17:08;;;;;;;;;;;;;;;16.69;nan;100383.19;5032029;28;19917;-88
2023/03/31 01:19:52;;;;;;;;;;;;;;;16.69;nan;100383.19;5036449;28;19961;-88
2023/03/31 01:22:29;;;;;;;;;;;;;;;16.71;nan;100375.63;5034318;28;19921;-87
2023/03/31 01:25:14;;;;;;;;;;;;;;;16.67;nan;100385.41;5029846;28;19923;-88
2023/03/31 01:27:40;;;;;;;;;;;;;;;16.64;nan;100378.66;5026569;28;19917;-88
2023/03/31 01:30:08;;;;;;;;;;;;;;;16.64;nan;100386.78;5035532;28;19917;-87
2023/03/31 01:32:52;;;;;;;;;;;;;;;16.64;nan;100378.66;5027073;28;19921;-88
2023/03/31 01:35:19;;;;;;;;;;;;;;;16.62;nan;100384.38;5036138;28;19948;-87
2023/03/31 01:37:50;;;;;;;;;;;;;;;16.60;nan;100383.06;5031251;28;19925;-88
2023/03/31 01:40:42;;;;;;;;;;;;;;;16.60;nan;100377.66;5000879;28;19925;-87
2023/03/31 01:43:16;;;;;;;;;;;;;;;16.59;nan;100378.75;5032158;28;19929;-87
2023/03/31 01:45:57;;;;;;;;;;;;;;;16.61;nan;100379.25;5022140;28;20000;-87
2023/03/31 01:48:25;;;;;;;;;;;;;;;16.62;nan;100373.53;5022986;28;19917;-87
2023/03/31 01:50:56;;;;;;;;;;;;;;;16.69;nan;100377.78;5003588;28;20283;-87
2023/03/31 01:53:47;;;;;;;;;;;;;;;16.67;nan;100372.69;5027806;28;19965;-88
2023/03/31 01:56:16;;;;;;;;;;;;;;;16.71;nan;100367.50;5011580;28;20168;-88
2023/03/31 01:58:43;;;;;;;;;;;;;;;16.72;nan;100363.69;5029785;28;19963;-88
2023/03/31 02:01:12;;;;;;;;;;;;;;;16.70;nan;100355.06;5027643;28;19929;-88
2023/03/31 02:03:39;;;;;;;;;;;;;;;16.69;nan;100358.84;5030224;28;19925;-88
2023/03/31 02:06:09;;;;;;;;;;;;;;;16.72;nan;100347.47;5030663;28;19999;-88
2023/03/31 02:08:44;;;;;;;;;;;;;;;16.73;nan;100344.44;5028391;28;20309;-87
2023/03/31 02:11:09;;;;;;;;;;;;;;;16.71;nan;100354.78;5033699;28;19917;-88
2023/03/31 02:13:37;;;;;;;;;;;;;;;16.72;nan;100350.16;5032226;28;19924;-87
2023/03/31 02:16:05;;;;;;;;;;;;;;;16.73;nan;100346.34;5036171;28;21555;-87
2023/03/31 02:18:32;;;;;;;;;;;;;;;16.71;nan;100337.75;5033670;28;20533;-87
2023/03/31 02:20:58;;;;;;;;;;;;;;;16.70;nan;100334.22;5028885;28;19960;-87
2023/03/31 02:23:28;;;;;;;;;;;;;;;16.68;nan;100330.19;5031778;28;19918;-86
2023/03/31 02:25:58;;;;;;;;;;;;;;;16.69;nan;100334.50;5023497;28;19925;-87
2023/03/31 02:28:25;;;;;;;;;;;;;;;16.70;nan;100330.72;5033374;28;19957;-87
2023/03/31 02:31:09;;;;;;;;;;;;;;;16.70;nan;100320.72;5032413;28;19963;-87
2023/03/31 02:33:34;;;;;;;;;;;;;;;16.71;nan;100322.31;5026150;28;20448;-87
2023/03/31 02:36:00;;;;;;;;;;;;;;;16.70;nan;100322.63;5026955;28;19952;-88
2023/03/31 02:38:25;;;;;;;;;;;;;;;16.74;nan;100324.41;5028002;28;19917;-86
2023/03/31 02:40:51;;;;;;;;;;;;;;;16.76;nan;100314.09;5030976;28;20401;-86
2023/03/31 02:43:16;;;;;;;;;;;;;;;16.74;nan;100312.78;5029481;28;19964;-86
2023/03/31 02:45:43;;;;;;;;;;;;;;;16.76;nan;100313.28;5012378;28;19978;-87
2023/03/31 02:48:10;;;;;;;;;;;;;;;16.77;nan;100310.28;5031029;28;19955;-86
2023/03/31 02:50:58;;;;;;;;;;;;;;;16.79;nan;100313.50;5028716;28;19949;-86
2023/03/31 02:53:26;;;;;;;;;;;;;;;16.85;nan;100311.47;5025448;28;20341;-86
2023/03/31 02:56:12;;;;;;;;;;;;;;;16.85;nan;100306.06;5031967;28;19952;-86
2023/03/31 02:58:52;;;;;;;;;;;;;;;16.83;nan;100306.38;5028653;28;19917;-86
2023/03/31 03:01:20;;;;;;;;;;;;;;;16.89;nan;100304.38;5032263;28;19921;-86
2023/03/31 03:03:46;;;;;;;;;;;;;;;16.90;nan;100301.38;5009074;28;19914;-86
2023/03/31 03:06:37;;;;;;;;;;;;;;;16.86;nan;100284.13;5029632;28;19923;-86
2023/03/31 03:09:07;;;;;;;;;;;;;;;16.86;nan;100288.72;4995069;28;20410;-86
2023/03/31 03:11:49;;;;;;;;;;;;;;;16.89;nan;100286.25;5027172;28;20008;-86
2023/03/31 03:14:21;;;;;;;;;;;;;;;16.91;nan;100284.03;5027440;28;20007;-88
2023/03/31 03:16:49;;;;;;;;;;;;;;;16.86;nan;100291.44;5030795;28;19924;-88
2023/03/31 03:19:19;;;;;;;;;;;;;;;16.89;nan;100290.84;5034481;28;20404;-88
2023/03/31 03:21:46;;;;;;;;;;;;;;;16.88;nan;100294.66;5031664;28;19925;-86
2023/03/31 03:24:12;;;;;;;;;;;;;;;16.90;nan;100289.75;5025562;28;19980;-87
2023/03/31 03:26:37;;;;;;;;;;;;;;;16.88;nan;100297.38;5027128;28;20379;-88
2023/03/31 03:29:03;;;;;;;;;;;;;;;16.90;nan;100295.16;5029207;28;19931;-88
2023/03/31 03:31:29;;;;;;;;;;;;;;;16.90;nan;100284.34;5041566;28;19942;-89
2023/03/31 03:33:57;;;;;;;;;;;;;;;16.93;nan;100286.44;5041270;28;19971;-89
2023/03/31 03:36:22;;;;;;;;;;;;;;;16.91;nan;100283.25;5034560;28;19921;-89
2023/03/31 03:38:48;;;;;;;;;;;;;;;16.87;nan;100290.34;5034284;28;20370;-89
2023/03/31 03:41:13;;;;;;;;;;;;;;;16.85;nan;100287.13;5033853;28;19925;-89
2023/03/31 03:43:39;;;;;;;;;;;;;;;16.83;nan;100292.03;5009935;28;19960;-89
2023/03/31 03:46:04;;;;;;;;;;;;;;;16.84;nan;100285.53;5027513;28;19917;-90
2023/03/31 03:48:29;;;;;;;;;;;;;;;16.81;nan;100278.81;5034568;28;19923;-87
2023/03/31 03:50:56;;;;;;;;;;;;;;;16.72;nan;100277.94;5036490;28;19917;-88
2023/03/31 03:53:21;;;;;;;;;;;;;;;16.74;nan;100280.31;5033844;28;19921;-88
2023/03/31 03:55:48;;;;;;;;;;;;;;;16.71;nan;100275.53;5033212;28;19918;-87
2023/03/31 03:58:14;;;;;;;;;;;;;;;16.71;nan;100278.22;5034803;28;19964;-87
2023/03/31 04:00:40;;;;;;;;;;;;;;;16.70;nan;100272.03;5031985;28;19917;-87
2023/03/31 04:03:05;;;;;;;;;;;;;;;16.71;nan;100272.81;5039520;28;20043;-88
2023/03/31 04:05:30;;;;;;;;;;;;;;;16.71;nan;100270.91;5038541;28;19917;-88
2023/03/31 04:07:56;;;;;;;;;;;;;;;16.72;nan;100269.00;5037117;28;19917;-87
2023/03/31 04:10:21;;;;;;;;;;;;;;;16.69;nan;100266.88;5031078;28;19920;-87
2023/03/31 04:12:47;;;;;;;;;;;;;;;16.65;nan;100257.75;5030868;28;20355;-86
2023/03/31 04:15:12;;;;;;;;;;;;;;;16.67;nan;100255.56;5030404;28;19924;-87
2023/03/31 04:17:37;;;;;;;;;;;;;;;16.67;nan;100247.44;5030485;28;19925;-87
2023/03/31 04:20:06;;;;;;;;;;;;;;;16.64;nan;100254.22;5034392;28;19928;-88
2023/03/31 04:22:39;;;;;;;;;;;;;;;16.59;nan;100241.63;5027529;28;19921;-87
2023/03/31 04:25:15;;;;;;;;;;;;;;;16.49;nan;100244.50;5038748;28;19917;-87
2023/03/31 04:27:53;;;;;;;;;;;;;;;16.49;nan;100241.00;5025769;28;20310;-86
2023/03/31 04:30:22;;;;;;;;;;;;;;;16.46;nan;100236.19;5032455;28;20325;-86
2023/03/31 04:32:50;;;;;;;;;;;;;;;16.44;nan;100227.59;5021567;28;19920;-88
2023/03/31 04:35:16;;;;;;;;;;;;;;;16.41;nan;100228.19;5011023;28;20548;-87
2023/03/31 04:37:42;;;;;;;;;;;;;;;16.35;nan;100224.78;5033627;28;20012;-87
2023/03/31 04:40:08;;;;;;;;;;;;;;;16.33;nan;100229.66;5013901;28;19961;-88
2023/03/31 04:42:34;;;;;;;;;;;;;;;16.31;nan;100224.56;5034831;28;20343;-86
2023/03/31 04:44:59;;;;;;;;;;;;;;;16.30;nan;100219.44;5026897;28;19959;-87
2023/03/31 04:47:25;;;;;;;;;;;;;;;16.28;nan;100213.53;5034797;28;19964;-87
2023/03/31 04:49:50;;;;;;;;;;;;;;;16.29;nan;100218.66;5029451;28;19917;-87
2023/03/31 04:52:15;;;;;;;;;;;;;;;16.28;nan;100221.66;5030319;28;19975;-87
2023/03/31 04:54:41;;;;;;;;;;;;;;;16.28;nan;100216.25;5031539;28;19940;-87
2023/03/31 04:57:06;;;;;;;;;;;;;;;16.27;nan;100210.03;5031126;28;19928;-87
2023/03/31 04:59:32;;;;;;;;;;;;;;;16.30;nan;100201.34;5032847;28;19925;-87
2023/03/31 05:01:57;;;;;;;;;;;;;;;16.35;nan;100207.75;5009470;28;20451;-87
2023/03/31 05:04:22;;;;;;;;;;;;;;;16.30;nan;100208.63;5037790;28;20800;-86
2023/03/31 05:06:48;;;;;;;;;;;;;;;16.23;nan;100209.03;5034842;28;19924;-88
2023/03/31 05:09:13;;;;;;;;;;;;;;;16.17;nan;100204.84;5037388;28;19917;-88
2023/03/31 05:11:38;;;;;;;;;;;;;;;16.11;nan;100208.72;5028911;28;19924;-87
2023/03/31 05:14:04;;;;;;;;;;;;;;;16.05;nan;100209.13;5017324;28;20422;-87
2023/03/31 05:16:29;;;;;;;;;;;;;;;16.06;nan;100205.31;5033731;28;21539;-88
2023/03/31 05:18:55;;;;;;;;;;;;;;;16.07;nan;100201.50;5028728;28;19948;-86
2023/03/31 05:21:20;;;;;;;;;;;;;;;16.07;nan;100205.00;5028151;28;19964;-87
2023/03/31 05:23:46;;;;;;;;;;;;;;;16.09;nan;100193.91;5037069;28;19921;-86
2023/03/31 05:26:12;;;;;;;;;;;;;;;16.12;nan;100187.91;5029282;28;19917;-87
2023/03/31 05:28:38;;;;;;;;;;;;;;;16.21;nan;100195.03;5032227;28;20345;-88
2023/03/31 05:31:04;;;;;;;;;;;;;;;16.24;nan;100193.63;5028908;28;19959;-88
2023/03/31 05:33:30;;;;;;;;;;;;;;;16.27;nan;100190.31;5035645;28;19917;-87
2023/03/31 05:35:55;;;;;;;;;;;;;;;16.31;nan;100189.41;5037272;28;19941;-87
2023/03/31 05:38:21;;;;;;;;;;;;;;;16.37;nan;100189.34;5031888;28;19925;-86
2023/03/31 05:40:47;;;;;;;;;;;;;;;16.39;nan;100187.13;5037651;28;19924;-87
2023/03/31 05:43:13;;;;;;;;;;;;;;;16.44;nan;100184.31;5027356;28;19913;-87
2023/03/31 05:45:38;;;;;;;;;;;;;;;16.46;nan;100180.22;5036625;28;20347;-87
2023/03/31 05:48:04;;;;;;;;;;;;;;;16.50;nan;100173.09;5029250;28;19917;-87
2023/03/31 05:50:29;;;;;;;;;;;;;;;16.53;nan;100169.00;5031945;28;19917;-87
2023/03/31 05:52:55;;;;;;;;;;;;;;;16.57;nan;100165.41;5033279;28;20493;-86
2023/03/31 05:55:20;;;;;;;;;;;;;;;16.61;nan;100162.88;5027377;28;19923;-87
2023/03/31 05:57:45;;;;;;;;;;;;;;;16.66;nan;100170.09;5033164;28;19963;-88
2023/03/31 06:00:11;;;;;;;;;;;;;;;16.72;nan;100167.03;5032163;28;19964;-87
2023/03/31 06:02:36;;;;;;;;;;;;;;;16.76;nan;100165.31;5029078;28;19921;-86
2023/03/31 06:05:04;;;;;;;;;;;;;;;16.80;nan;100160.88;5024560;28;19922;-87
2023/03/31 06:07:29;;;;;;;;;;;;;;;16.86;nan;100164.28;5033252;28;19925;-87
2023/03/31 06:09:55;;;;;;;;;;;;;;;16.86;nan;100159.66;5033795;28;19979;-87
2023/03/31 06:12:20;;;;;;;;;;;;;;;16.88;nan;100162.09;5030987;28;20008;-87
2023/03/31 06:14:45;;;;;;;;;;;;;;;16.90;nan;100157.16;5033792;28;19923;-87
2023/03/31 06:17:10;;;;;;;;;;;;;;;16.90;nan;100151.75;5031189;28;19960;-87
2023/03/31 06:19:36;;;;;;;;;;;;;;;16.93;nan;100148.44;5034581;28;19928;-86
2023/03/31 06:22:01;;;;;;;;;;;;;;;16.95;nan;100150.84;5026422;28;19928;-88
2023/03/31 06:24:29;;;;;;;;;;;;;;;17.01;nan;100144.19;5027393;28;19927;-87
2023/03/31 06:26:54;;;;;;;;;;;;;;;16.95;nan;100151.63;5031193;28;19923;-87
2023/03/31 06:29:20;;;;;;;;;;;;;;;16.94;nan;100147.31;5014112;28;20514;-87
2023/03/31 06:31:45;;;;;;;;;;;;;;;16.97;nan;100135.88;5027677;28;19917;-86
2023/03/31 06:34:10;;;;;;;;;;;;;;;16.99;nan;100130.16;5030880;28;20329;-87
2023/03/31 06:36:36;;;;;;;;;;;;;;;17.06;nan;100135.97;5026173;28;19917;-87
2023/03/31 06:39:01;;;;;;;;;;;;;;;17.10;nan;100137.75;5029664;28;19948;-87
2023/03/31 06:41:27;;;;;;;;;;;;;;;17.14;nan;100140.66;5035049;28;19920;-87
2023/03/31 06:43:52;;;;;;;;;;;;;;;17.18;nan;100136.22;5028758;28;20406;-87
2023/03/31 06:46:18;;;;;;;;;;;;;;;17.21;nan;100122.06;5030298;28;19995;-86
2023/03/31 06:48:43;;;;;;;;;;;;;;;17.27;nan;100122.75;5027769;28;20465;-86
2023/03/31 06:51:09;;;;;;;;;;;;;;;17.34;nan;100125.81;5025768;28;19960;-88
2023/03/31 06:53:35;;;;;;;;;;;;;;;17.39;nan;100120.28;5031664;28;19920;-88
2023/03/31 06:56:00;;;;;;;;;;;;;;;17.47;nan;100123.06;5013143;28;20335;-89
2023/03/31 06:58:26;;;;;;;;;;;;;;;17.49;nan;100123.56;5024240;28;19923;-89
2023/03/31 07:00:51;;;;;;;;;;;;;;;17.50;nan;100127.84;5029329;28;19923;-88
2023/03/31 07:03:17;;;;;;;;;;;;;;;17.53;nan;100129.13;5027137;28;20518;-89
2023/03/31 07:05:47;;;;;;;;;;;;;;;17.47;nan;100124.97;5022562;28;19948;-87
2023/03/31 07:08:12;;;;;;;;;;;;;;;17.42;nan;100123.19;5026492;28;19921;-88
2023/03/31 07:10:38;;;;;;;;;;;;;;;17.42;nan;100125.09;5027469;28;19928;-87
2023/03/31 07:13:03;;;;;;;;;;;;;;;17.48;nan;100121.16;5020565;28;19928;-87
2023/03/31 07:15:29;;;;;;;;;;;;;;;17.49;nan;100120.84;5015395;28;19917;-87
2023/03/31 07:18:01;;;;;;;;;;;;;;;17.54;nan;100125.31;5033282;28;20389;-90
2023/03/31 07:20:27;;;;;;;;;;;;;;;17.52;nan;100116.72;5024313;28;19926;-88
2023/03/31 07:22:53;;;;;;;;;;;;;;;17.52;nan;100122.13;5022656;28;19979;-90
2023/03/31 07:25:18;;;;;;;;;;;;;;;17.52;nan;100114.81;5028419;28;19921;-87
2023/03/31 07:27:44;;;;;;;;;;;;;;;17.58;nan;100118.16;5025955;28;19921;-87
2023/03/31 07:30:12;;;;;;;;;;;;;;;17.65;nan;100121.25;5026616;28;19924;-90
2023/03/31 07:32:39;;;;;;;;;;;;;;;17.61;nan;100114.88;5031287;28;19913;-89
2023/03/31 07:35:10;;;;;;;;;;;;;;;17.69;nan;100121.47;5032111;28;19927;-89
2023/03/31 07:37:40;;;;;;;;;;;;;;;17.70;nan;100113.03;5023692;28;19917;-89
2023/03/31 07:40:06;;;;;;;;;;;;;;;17.76;nan;100117.19;5025408;28;19917;-89
2023/03/31 07:42:33;;;;;;;;;;;;;;;17.85;nan;100116.44;5014609;28;19920;-87
2023/03/31 07:44:58;;;;;;;;;;;;;;;17.92;nan;100117.59;5029689;28;19918;-88
2023/03/31 07:47:24;;;;;;;;;;;;;;;17.98;nan;100118.28;5013268;28;20004;-90
2023/03/31 07:49:49;;;;;;;;;;;;;;;18.06;nan;100117.50;5027065;28;19917;-90
2023/03/31 07:52:16;;;;;;;;;;;;;;;18.14;nan;100111.31;5031089;28;20043;-87
2023/03/31 07:54:41;;;;;;;;;;;;;;;18.19;nan;100100.31;5032485;28;19984;-88
2023/03/31 07:57:07;;;;;;;;;;;;;;;18.28;nan;100098.44;5033150;28;19963;-87
2023/03/31 07:59:33;;;;;;;;;;;;;;;18.47;nan;100089.22;5028676;28;19923;-86
2023/03/31 08:01:58;;;;;;;;;;;;;;;18.58;nan;100093.22;5031445;28;19921;-89
2023/03/31 08:04:24;;;;;;;;;;;;;;;18.63;nan;100085.75;5039022;28;19924;-87
2023/03/31 08:06:50;;;;;;;;;;;;;;;18.66;nan;100084.31;5027413;28;20487;-88
2023/03/31 08:09:17;;;;;;;;;;;;;;;18.74;nan;100080.84;5006861;28;20477;-89
2023/03/31 08:11:45;;;;;;;;;;;;;;;18.97;nan;100074.13;5020543;28;19963;-88
2023/03/31 08:14:13;;;;;;;;;;;;;;;19.18;nan;100078.91;5026601;28;20311;-88
2023/03/31 08:16:40;;;;;;;;;;;;;;;19.33;nan;100076.47;5032884;28;19917;-87
2023/03/31 08:19:08;;;;;;;;;;;;;;;19.53;nan;100068.75;5029987;28;20015;-88
2023/03/31 08:21:36;;;;;;;;;;;;;;;19.81;nan;100058.31;5028211;28;19929;-87
2023/03/31 08:24:05;;;;;;;;;;;;;;;19.88;nan;100058.59;5027323;28;19924;-87
2023/03/31 08:26:31;;;;;;;;;;;;;;;19.91;nan;100052.50;5030931;28;19925;-88
2023/03/31 08:28:57;;;;;;;;;;;;;;;19.95;nan;100056.19;5035454;28;19917;-87
2023/03/31 08:31:27;;;;;;;;;;;;;;;20.01;nan;100048.63;5030514;28;19931;-88
2023/03/31 08:33:53;;;;;;;;;;;;;;;20.02;nan;100036.63;5037347;28;19979;-88
2023/03/31 08:36:19;;;;;;;;;;;;;;;20.07;nan;100039.16;5021434;28;19928;-88
2023/03/31 08:38:48;;;;;;;;;;;;;;;20.09;nan;100032.25;5029977;28;20374;-88
2023/03/31 08:41:34;;;;;;;;;;;;;;;20.27;nan;100032.94;5032680;28;20575;-88
2023/03/31 08:44:01;;;;;;;;;;;;;;;20.33;nan;100025.41;5033443;28;19925;-87
2023/03/31 08:46:29;;;;;;;;;;;;;;;20.43;nan;100025.03;5030943;28;19917;-87
2023/03/31 08:48:56;;;;;;;;;;;;;;;20.52;nan;100023.06;5037828;28;19917;-89
2023/03/31 08:51:27;;;;;;;;;;;;;;;20.54;nan;100017.28;5037072;28;19991;-89
2023/03/31 08:54:11;;;;;;;;;;;;;;;20.51;nan;100013.28;5029170;28;19919;-89
2023/03/31 08:56:39;;;;;;;;;;;;;;;20.58;nan;100019.00;5037798;28;19924;-88
2023/03/31 08:59:05;;;;;;;;;;;;;;;20.73;nan;100014.88;5044654;28;19944;-88
2023/03/31 09:01:33;;;;;;;;;;;;;;;20.69;nan;100019.41;5030489;28;19928;-87
2023/03/31 09:03:58;;;;;;;;;;;;;;;20.65;nan;100013.03;5042007;28;20444;-87
2023/03/31 09:06:37;;;;;;;;;;;;;;;20.59;nan;100004.25;5041535;28;19917;-87
2023/03/31 09:09:04;;;;;;;;;;;;;;;20.67;nan;100002.59;5031666;28;20010;-86
2023/03/31 09:11:29;;;;;;;;;;;;;;;20.80;nan;100005.03;5042240;28;19921;-87
2023/03/31 09:14:09;;;;;;;;;;;;;;;20.87;nan;99995.53;5042746;28;19928;-87
2023/03/31 09:16:42;;;;;;;;;;;;;;;20.89;nan;99994.06;5042715;28;19920;-87
2023/03/31 09:19:29;;;;;;;;;;;;;;;20.93;nan;99994.19;5034542;28;20032;-88
2023/03/31 09:21:55;;;;;;;;;;;;;;;20.99;nan;99992.84;5038186;28;19972;-88
2023/03/31 09:24:30;;;;;;;;;;;;;;;21.00;nan;99989.78;5042892;28;19917;-87
2023/03/31 09:27:05;;;;;;;;;;;;;;;21.04;nan;99987.19;5037080;28;19917;-89
2023/03/31 09:29:40;;;;;;;;;;;;;;;21.06;nan;99983.00;5034512;28;19920;-88
2023/03/31 09:32:16;;;;;;;;;;;;;;;21.11;nan;99985.50;5036575;28;19939;-87
2023/03/31 09:34:42;;;;;;;;;;;;;;;21.10;nan;99985.84;5032092;28;19988;-87
2023/03/31 09:37:08;;;;;;;;;;;;;;;21.02;nan;99976.66;5034931;28;19959;-87
2023/03/31 09:39:34;;;;;;;;;;;;;;;20.99;nan;99977.28;5009249;28;20359;-87
2023/03/31 09:41:59;;;;;;;;;;;;;;;20.96;nan;99977.97;5029160;28;19922;-87
2023/03/31 09:44:27;;;;;;;;;;;;;;;20.97;nan;99962.44;5025997;28;20437;-87
2023/03/31 09:46:53;;;;;;;;;;;;;;;20.98;nan;99964.00;5019775;28;19914;-87
2023/03/31 09:49:20;;;;;;;;;;;;;;;21.04;nan;99963.47;5020292;28;19925;-86
2023/03/31 09:51:47;;;;;;;;;;;;;;;20.99;nan;99952.78;5028376;28;19918;-86
2023/03/31 09:54:24;;;;;;;;;;;;;;;21.02;nan;99943.97;5024007;28;19924;-87
2023/03/31 09:56:53;;;;;;;;;;;;;;;21.01;nan;99942.38;5030003;28;19917;-86
2023/03/31 09:59:20;;;;;;;;;;;;;;;21.07;nan;99951.13;5035840;28;19922;-88
2023/03/31 10:01:48;;;;;;;;;;;;;;;21.01;nan;99953.28;5037126;28;19985;-87
2023/03/31 10:04:22;;;;;;;;;;;;;;;21.03;nan;99947.47;5027491;28;21305;-87
2023/03/31 10:06:47;;;;;;;;;;;;;;;21.03;nan;99945.56;5027073;28;20012;-87
2023/03/31 10:09:13;;;;;;;;;;;;;;;21.05;nan;99934.31;5025724;28;19956;-87
2023/03/31 10:11:50;;;;;;;;;;;;;;;21.10;nan;99934.88;5033055;28;20394;-86
2023/03/31 10:14:15;;;;;;;;;;;;;;;21.17;nan;99934.31;5017495;28;19960;-87
2023/03/31 10:16:48;;;;;;;;;;;;;;;21.21;nan;99929.81;5030799;28;19925;-87
2023/03/31 10:19:24;;;;;;;;;;;;;;;21.24;nan;99923.72;5033214;28;21024;-90
2023/03/31 10:22:00;;;;;;;;;;;;;;;21.19;nan;99932.06;5036313;28;19921;-86
2023/03/31 10:24:36;;;;;;;;;;;;;;;21.29;nan;99925.41;5034918;28;19924;-87
2023/03/31 10:27:01;;;;;;;;;;;;;;;21.34;nan;99920.53;5034711;28;19976;-87
2023/03/31 10:29:31;;;;;;;;;;;;;;;21.40;nan;99921.13;5029754;28;19952;-87
2023/03/31 10:32:05;;;;;;;;;;;;;;;21.40;nan;99915.66;5019996;28;19949;-88
2023/03/31 10:34:30;;;;;;;;;;;;;;;21.48;nan;99903.84;5030799;28;19986;-87
2023/03/31 10:36:56;;;;;;;;;;;;;;;21.59;nan;99901.47;5035242;28;19980;-87
2023/03/31 10:39:24;;;;;;;;;;;;;;;21.70;nan;99897.13;5030941;28;19924;-88
2023/03/31 10:41:50;;;;;;;;;;;;;;;21.88;nan;99892.19;5031334;28;19925;-88
2023/03/31 10:44:32;;;;;;;;;;;;;;;21.95;nan;99886.97;5030082;28;19981;-87
2023/03/31 10:47:05;;;;;;;;;;;;;;;22.02;nan;99885.25;5034943;28;19921;-87
2023/03/31 10:49:36;;;;;;;;;;;;;;;22.02;nan;99887.16;5031767;28;19940;-87
2023/03/31 10:52:01;;;;;;;;;;;;;;;22.06;nan;99881.84;5032554;28;19917;-87
2023/03/31 10:54:27;;;;;;;;;;;;;;;22.10;nan;99872.66;5032294;28;19917;-86
2023/03/31 10:56:57;;;;;;;;;;;;;;;22.13;nan;99868.44;5031337;28;19995;-86
2023/03/31 10:59:28;;;;;;;;;;;;;;;22.17;nan;99867.38;5028480;28;20174;-87
2023/03/31 11:02:12;;;;;;;;;;;;;;;22.31;nan;99859.59;5035975;28;19939;-87
2023/03/31 11:04:59;;;;;;;;;;;;;;;22.51;nan;99865.97;5031040;28;19924;-87
2023/03/31 11:07:28;;;;;;;;;;;;;;;22.68;nan;99856.66;5039039;28;19926;-87
2023/03/31 11:10:02;;;;;;;;;;;;;;;22.79;nan;99854.19;5032625;28;19963;-87
2023/03/31 11:12:36;;;;;;;;;;;;;;;22.77;nan;99851.03;5022702;28;20600;-86
2023/03/31 11:15:10;;;;;;;;;;;;;;;22.64;nan;99847.59;5030898;28;19926;-88
2023/03/31 11:17:35;;;;;;;;;;;;;;;22.69;nan;99838.34;5027765;28;19920;-88
2023/03/31 11:20:16;;;;;;;;;;;;;;;22.84;nan;99845.81;5044112;28;19963;-88
2023/03/31 11:22:42;;;;;;;;;;;;;;;22.95;nan;99833.19;5025248;28;19925;-86
2023/03/31 11:25:15;;;;;;;;;;;;;;;22.95;nan;99824.19;5020342;28;20187;-89
2023/03/31 11:27:46;;;;;;;;;;;;;;;22.94;nan;99823.41;5021673;28;20000;-88
2023/03/31 11:30:19;;;;;;;;;;;;;;;22.87;nan;99818.56;5037096;28;19920;-87
2023/03/31 11:32:56;;;;;;;;;;;;;;;22.79;nan;99813.25;5026612;28;19921;-89
2023/03/31 11:35:37;;;;;;;;;;;;;;;22.75;nan;99801.44;5039162;28;19952;-89
2023/03/31 11:38:03;;;;;;;;;;;;;;;22.71;nan;99798.63;5034097;28;20561;-87
2023/03/31 11:40:42;;;;;;;;;;;;;;;22.73;nan;99795.53;5031664;28;19921;-89
2023/03/31 11:43:26;;;;;;;;;;;;;;;22.71;nan;99795.09;5034715;28;19921;-87
2023/03/31 11:45:55;;;;;;;;;;;;;;;22.68;nan;99793.09;5007267;28;19940;-88
2023/03/31 11:48:27;;;;;;;;;;;;;;;22.65;nan;99793.78;5034834;28;19925;-88
2023/03/31 11:50:53;;;;;;;;;;;;;;;22.65;nan;99788.34;5030463;28;19921;-88
2023/03/31 11:53:23;;;;;;;;;;;;;;;22.68;nan;99793.09;5027016;28;19921;-89
2023/03/31 11:55:54;;;;;;;;;;;;;;;22.61;nan;99786.28;5035108;28;19959;-89
2023/03/31 11:58:23;;;;;;;;;;;;;;;22.53;nan;99781.00;5040583;28;19928;-88
2023/03/31 12:00:54;;;;;;;;;;;;;;;22.44;nan;99773.00;5042540;28;19921;-89
2023/03/31 12:03:23;;;;;;;;;;;;;;;22.33;nan;99771.91;5037549;28;20272;-89
2023/03/31 12:05:50;;;;;;;;;;;;;;;22.36;nan;99765.75;5030285;28;19921;-87
2023/03/31 12:08:22;;;;;;;;;;;;;;;22.29;nan;99751.94;5030123;28;19921;-88
2023/03/31 12:10:52;;;;;;;;;;;;;;;22.15;nan;99757.03;5026909;28;20012;-86
2023/03/31 12:13:30;;;;;;;;;;;;;;;22.09;nan;99750.25;5034126;28;20844;-87
2023/03/31 12:16:04;;;;;;;;;;;;;;;22.05;nan;99750.13;5035262;28;19917;-87
2023/03/31 12:18:35;;;;;;;;;;;;;;;22.12;nan;99746.81;5035506;28;19987;-87
2023/03/31 12:21:02;;;;;;;;;;;;;;;22.19;nan;99744.25;5033780;28;19996;-87
2023/03/31 12:23:30;;;;;;;;;;;;;;;22.19;nan;99738.81;5038979;28;19923;-89
2023/03/31 12:26:07;;;;;;;;;;;;;;;22.26;nan;99737.06;5037612;28;19921;-87
2023/03/31 12:28:34;;;;;;;;;;;;;;;22.38;nan;99735.38;5038030;28;19921;-87
2023/03/31 12:31:01;;;;;;;;;;;;;;;22.42;nan;99733.53;5028985;28;20542;-88
2023/03/31 12:33:32;;;;;;;;;;;;;;;22.55;nan;99724.13;5039281;28;19948;-87
2023/03/31 12:35:57;;;;;;;;;;;;;;;22.68;nan;99722.09;5033318;28;19924;-87
2023/03/31 12:38:40;;;;;;;;;;;;;;;22.83;nan;99718.59;5034370;28;19953;-86
2023/03/31 12:41:13;;;;;;;;;;;;;;;22.83;nan;99704.94;5043234;28;19917;-88
2023/03/31 12:43:58;;;;;;;;;;;;;;;22.74;nan;99699.63;5030786;28;20009;-86
2023/03/31 12:46:32;;;;;;;;;;;;;;;22.70;nan;99693.28;5029241;28;19999;-89
2023/03/31 12:49:16;;;;;;;;;;;;;;;22.83;nan;99694.81;5032421;28;19918;-87
2023/03/31 12:52:00;;;;;;;;;;;;;;;22.73;nan;99689.84;5028837;28;20056;-87
2023/03/31 12:54:34;;;;;;;;;;;;;;;22.81;nan;99688.09;5036568;28;19921;-88
2023/03/31 12:57:00;;;;;;;;;;;;;;;22.82;nan;99679.56;5029933;28;19924;-89
2023/03/31 12:59:33;;;;;;;;;;;;;;;22.87;nan;99671.09;5032992;28;20264;-86
2023/03/31 13:02:14;;;;;;;;;;;;;;;22.98;nan;99667.78;5031589;28;20026;-86
2023/03/31 13:04:52;;;;;;;;;;;;;;;23.06;nan;99673.06;5033378;28;19917;-88
2023/03/31 13:07:26;;;;;;;;;;;;;;;23.03;nan;99664.78;5034010;28;20064;-88
2023/03/31 13:10:15;;;;;;;;;;;;;;;23.05;nan;99667.97;5030112;28;19925;-86